createdAt,value
2022-07-26T00:00:02.010Z,20.86
2022-07-26T00:02:52.721Z,20.82
2022-07-26T00:05:20.998Z,20.79
2022-07-26T00:07:49.005Z,20.77
2022-07-26T00:10:17.117Z,20.75
2022-07-26T00:12:45.238Z,20.72
2022-07-26T00:15:13.673Z,20.70
2022-07-26T00:17:41.718Z,20.67
2022-07-26T00:20:10.095Z,20.66
2022-07-26T00:22:39.769Z,20.63
2022-07-26T00:25:09.230Z,20.61
2022-07-26T00:27:37.568Z,20.57
2022-07-26T00:30:08.049Z,20.55
2022-07-26T00:32:37.276Z,20.52
2022-07-26T00:35:06.380Z,20.46
2022-07-26T00:37:34.526Z,20.40
2022-07-26T00:40:02.590Z,20.33
2022-07-26T00:42:30.554Z,20.26
2022-07-26T00:44:58.639Z,20.21
2022-07-26T00:47:26.767Z,20.17
2022-07-26T00:49:54.689Z,20.07
2022-07-26T00:52:22.763Z,19.96
2022-07-26T00:54:51.905Z,19.92
2022-07-26T00:57:21.066Z,19.84
2022-07-26T00:59:49.527Z,19.79
2022-07-26T01:02:18.559Z,19.74
2022-07-26T01:04:47.931Z,19.66
2022-07-26T01:07:16.080Z,19.59
2022-07-26T01:09:44.841Z,19.56
2022-07-26T01:12:12.893Z,19.48
2022-07-26T01:14:44.609Z,19.43
2022-07-26T01:17:14.233Z,19.42
2022-07-26T01:19:42.605Z,19.40
2022-07-26T01:22:14.409Z,19.42
2022-07-26T01:24:42.916Z,19.41
2022-07-26T01:27:10.921Z,19.39
2022-07-26T01:29:38.919Z,19.38
2022-07-26T01:32:07.391Z,19.36
2022-07-26T01:34:35.366Z,19.36
2022-07-26T01:37:06.131Z,19.36
2022-07-26T01:39:34.103Z,19.36
2022-07-26T01:42:05.771Z,19.36
2022-07-26T01:44:33.658Z,19.30
2022-07-26T01:47:04.342Z,19.26
2022-07-26T01:49:32.448Z,19.24
2022-07-26T01:52:00.587Z,19.24
2022-07-26T01:54:29.424Z,19.21
2022-07-26T01:56:57.421Z,19.24
2022-07-26T01:59:25.391Z,19.23
2022-07-26T02:01:53.379Z,19.26
2022-07-26T02:04:39.857Z,19.30
2022-07-26T02:07:12.879Z,19.26
2022-07-26T02:09:41.479Z,19.25
2022-07-26T02:12:09.567Z,19.24
2022-07-26T02:14:37.464Z,19.25
2022-07-26T02:17:05.707Z,19.26
2022-07-26T02:19:33.731Z,19.27
2022-07-26T02:22:01.683Z,19.24
2022-07-26T02:24:29.875Z,19.22
2022-07-26T02:26:59.527Z,19.18
2022-07-26T02:29:28.570Z,19.13
2022-07-26T02:31:57.051Z,19.09
2022-07-26T02:35:25.694Z,19.04
2022-07-26T02:39:14.553Z,18.90
2022-07-26T02:43:03.468Z,18.82
2022-07-26T02:46:32.623Z,18.76
2022-07-26T02:50:21.282Z,18.67
2022-07-26T02:54:10.589Z,18.58
2022-07-26T02:57:59.798Z,18.48
2022-07-26T03:00:47.980Z,18.46
2022-07-26T03:03:16.268Z,18.50
2022-07-26T03:05:44.558Z,18.57
2022-07-26T03:08:12.509Z,18.66
2022-07-26T03:10:41.189Z,18.78
2022-07-26T03:13:09.188Z,18.84
2022-07-26T03:15:37.346Z,18.87
2022-07-26T03:18:05.307Z,18.93
2022-07-26T03:20:33.177Z,18.93
2022-07-26T03:23:01.133Z,18.92
2022-07-26T03:25:29.002Z,18.97
2022-07-26T03:27:59.651Z,19.04
2022-07-26T03:30:27.796Z,19.05
2022-07-26T03:32:55.740Z,19.05
2022-07-26T03:35:23.814Z,19.07
2022-07-26T03:37:51.900Z,19.09
2022-07-26T03:40:20.704Z,19.13
2022-07-26T03:42:48.991Z,19.14
2022-07-26T03:45:18.083Z,19.13
2022-07-26T03:47:46.563Z,19.14
2022-07-26T03:50:14.600Z,19.14
2022-07-26T03:52:43.035Z,19.12
2022-07-26T03:55:29.755Z,19.12
2022-07-26T03:57:58.091Z,19.12
2022-07-26T04:00:26.706Z,19.09
2022-07-26T04:02:54.794Z,19.05
2022-07-26T04:05:23.795Z,19.05
2022-07-26T04:07:54.222Z,19.05
2022-07-26T04:10:22.944Z,19.04
2022-07-26T04:12:50.927Z,19.10
2022-07-26T04:15:21.031Z,19.13
2022-07-26T04:17:49.255Z,19.15
2022-07-26T04:20:17.639Z,19.19
2022-07-26T04:22:45.829Z,19.20
2022-07-26T04:25:13.831Z,19.22
2022-07-26T04:27:41.935Z,19.23
2022-07-26T04:30:14.815Z,19.21
2022-07-26T04:32:46.751Z,19.23
2022-07-26T04:35:15.712Z,19.26
2022-07-26T04:38:08.915Z,19.37
2022-07-26T04:40:40.583Z,19.53
2022-07-26T04:43:15.213Z,19.67
2022-07-26T04:45:48.333Z,19.81
2022-07-26T04:48:17.057Z,19.94
2022-07-26T04:50:45.162Z,20.06
2022-07-26T04:53:13.146Z,20.22
2022-07-26T04:55:42.035Z,20.40
2022-07-26T04:58:10.517Z,20.54
2022-07-26T05:01:02.727Z,20.71
2022-07-26T05:03:26.666Z,20.93
2022-07-26T05:05:54.653Z,21.11
2022-07-26T05:08:22.637Z,21.31
2022-07-26T05:10:55.644Z,21.47
2022-07-26T05:13:30.682Z,21.62
2022-07-26T05:16:00.063Z,21.80
2022-07-26T05:18:31.463Z,21.96
2022-07-26T05:21:04.350Z,22.20
2022-07-26T05:23:32.272Z,22.48
2022-07-26T05:26:00.225Z,22.73
2022-07-26T05:28:28.276Z,22.89
2022-07-26T05:30:56.278Z,23.08
2022-07-26T05:33:24.282Z,23.28
2022-07-26T05:35:52.282Z,23.41
2022-07-26T05:38:20.870Z,23.53
2022-07-26T05:40:50.930Z,23.61
2022-07-26T05:43:19.366Z,23.61
2022-07-26T05:45:47.362Z,23.57
2022-07-26T05:48:15.525Z,23.56
2022-07-26T05:50:43.547Z,23.55
2022-07-26T05:53:11.444Z,23.49
2022-07-26T05:55:39.472Z,23.40
2022-07-26T05:58:07.777Z,23.31
2022-07-26T06:00:35.801Z,23.23
2022-07-26T06:03:22.049Z,23.18
2022-07-26T06:05:56.705Z,23.13
2022-07-26T06:08:26.343Z,23.09
2022-07-26T06:10:55.226Z,23.18
2022-07-26T06:13:23.441Z,23.32
2022-07-26T06:15:51.986Z,23.47
2022-07-26T06:19:11.758Z,23.54
2022-07-26T06:21:40.233Z,23.48
2022-07-26T06:24:08.515Z,23.45
2022-07-26T06:26:36.897Z,23.53
2022-07-26T06:29:04.839Z,23.59
2022-07-26T06:31:33.030Z,23.50
2022-07-26T06:34:01.080Z,23.54
2022-07-26T06:36:31.099Z,23.56
2022-07-26T06:38:59.274Z,23.61
2022-07-26T06:41:27.318Z,23.67
2022-07-26T06:43:55.218Z,23.78
2022-07-26T06:46:24.226Z,23.88
2022-07-26T06:48:57.078Z,23.90
2022-07-26T06:51:25.416Z,24.00
2022-07-26T06:53:54.186Z,24.10
2022-07-26T06:56:22.194Z,24.20
2022-07-26T06:58:52.120Z,24.39
2022-07-26T07:01:58.084Z,24.56
2022-07-26T07:04:08.610Z,24.60
2022-07-26T07:06:37.078Z,24.58
2022-07-26T07:09:07.757Z,24.62
2022-07-26T07:11:36.991Z,24.62
2022-07-26T07:14:06.326Z,24.61
2022-07-26T07:16:34.795Z,24.66
2022-07-26T07:19:02.904Z,24.73
2022-07-26T07:21:30.962Z,24.75
2022-07-26T07:23:59.020Z,24.64
2022-07-26T07:26:26.901Z,24.47
2022-07-26T07:28:54.930Z,24.33
2022-07-26T07:31:30.456Z,24.18
2022-07-26T07:34:19.645Z,24.00
2022-07-26T07:36:47.793Z,23.89
2022-07-26T07:39:17.720Z,23.79
2022-07-26T07:41:47.087Z,23.65
2022-07-26T07:44:15.555Z,23.46
2022-07-26T07:46:43.787Z,23.31
2022-07-26T07:49:12.328Z,23.25
2022-07-26T07:51:40.834Z,23.22
2022-07-26T07:54:09.718Z,23.17
2022-07-26T07:56:37.979Z,23.13
2022-07-26T07:59:07.548Z,23.09
2022-07-26T08:01:40.568Z,22.89
2022-07-26T08:04:09.788Z,22.63
2022-07-26T08:06:37.741Z,22.41
2022-07-26T08:09:09.412Z,22.19
2022-07-26T08:11:41.932Z,22.12
2022-07-26T08:14:13.298Z,21.96
2022-07-26T08:16:41.397Z,21.86
2022-07-26T08:19:09.561Z,21.71
2022-07-26T08:21:38.662Z,21.53
2022-07-26T08:24:08.121Z,21.39
2022-07-26T08:26:36.040Z,21.34
2022-07-26T08:29:03.940Z,21.27
2022-07-26T08:31:31.995Z,21.22
2022-07-26T08:34:51.837Z,21.17
2022-07-26T08:37:19.865Z,21.16
2022-07-26T08:39:48.712Z,21.18
2022-07-26T08:42:22.563Z,21.29
2022-07-26T08:44:52.389Z,21.52
2022-07-26T08:47:35.464Z,21.65
2022-07-26T08:50:08.593Z,21.72
2022-07-26T08:52:41.862Z,21.76
2022-07-26T08:56:27.961Z,21.74
2022-07-26T08:58:55.770Z,21.75
2022-07-26T09:01:23.782Z,21.59
2022-07-26T09:03:51.859Z,21.43
2022-07-26T09:06:22.996Z,21.43
2022-07-26T09:09:11.240Z,21.29
2022-07-26T09:11:40.072Z,21.19
2022-07-26T09:14:08.038Z,21.12
2022-07-26T09:16:39.514Z,21.10
2022-07-26T09:19:25.100Z,21.23
2022-07-26T09:21:55.219Z,21.20
2022-07-26T09:24:38.099Z,21.17
2022-07-26T09:27:13.811Z,21.08
2022-07-26T09:29:53.856Z,21.05
2022-07-26T09:32:26.784Z,21.02
2022-07-26T09:34:58.758Z,20.88
2022-07-26T09:37:35.031Z,20.80
2022-07-26T09:40:06.758Z,20.83
2022-07-26T09:42:35.534Z,20.84
2022-07-26T09:45:16.637Z,20.80
2022-07-26T09:47:44.596Z,20.68
2022-07-26T09:50:18.465Z,20.53
2022-07-26T09:53:07.430Z,20.47
2022-07-26T09:55:44.560Z,20.46
2022-07-26T09:58:17.552Z,20.39
2022-07-26T10:00:45.811Z,20.40
2022-07-26T10:03:13.951Z,20.42
2022-07-26T10:05:42.084Z,20.39
2022-07-26T10:08:11.996Z,20.30
2022-07-26T10:10:48.380Z,20.23
2022-07-26T10:13:17.074Z,20.22
2022-07-26T10:15:49.945Z,20.19
2022-07-26T10:18:36.201Z,20.15
2022-07-26T10:21:16.156Z,20.15
2022-07-26T10:23:46.480Z,20.14
2022-07-26T10:26:32.733Z,20.07
2022-07-26T10:29:26.036Z,20.04
2022-07-26T10:32:03.165Z,20.01
2022-07-26T10:34:36.849Z,20.07
2022-07-26T10:37:20.156Z,20.08
2022-07-26T10:39:48.087Z,20.06
2022-07-26T10:42:15.953Z,20.07
2022-07-26T10:44:45.349Z,20.14
2022-07-26T10:47:18.871Z,20.15
2022-07-26T10:49:58.500Z,20.13
2022-07-26T10:52:31.436Z,20.12
2022-07-26T10:54:59.325Z,20.12
2022-07-26T10:57:44.755Z,20.09
2022-07-26T11:00:20.983Z,20.08
2022-07-26T11:02:53.284Z,20.11
2022-07-26T11:05:23.120Z,20.13
2022-07-26T11:08:10.673Z,20.15
2022-07-26T11:10:40.324Z,20.12
2022-07-26T11:13:10.160Z,20.19
2022-07-26T11:15:40.750Z,20.24
2022-07-26T11:18:10.169Z,20.21
2022-07-26T11:20:39.140Z,20.19
2022-07-26T11:23:24.355Z,20.12
2022-07-26T11:26:08.389Z,20.14
2022-07-26T11:28:50.379Z,20.06
2022-07-26T11:31:22.454Z,20.07
2022-07-26T11:33:53.856Z,20.06
2022-07-26T11:36:40.113Z,20.03
2022-07-26T11:39:13.524Z,20.01
2022-07-26T11:41:43.268Z,20.00
2022-07-26T11:44:19.078Z,19.97
2022-07-26T11:46:48.101Z,19.96
2022-07-26T11:52:25.058Z,20.00
2022-07-26T11:54:54.689Z,19.84
2022-07-26T11:57:28.764Z,19.74
2022-07-26T11:59:56.843Z,19.62
2022-07-26T12:02:24.871Z,19.52
2022-07-26T12:05:14.664Z,19.42
2022-07-26T12:08:00.268Z,19.33
2022-07-26T12:10:28.964Z,19.30
2022-07-26T12:13:10.986Z,19.33
2022-07-26T12:15:53.143Z,19.28
2022-07-26T12:18:34.172Z,19.19
2022-07-26T12:21:09.550Z,19.12
2022-07-26T12:23:46.400Z,19.04
2022-07-26T12:26:30.802Z,18.93
2022-07-26T12:32:08.867Z,18.84
2022-07-26T12:34:55.939Z,18.85
2022-07-26T12:37:33.727Z,18.81
2022-07-26T12:40:13.380Z,18.68
2022-07-26T12:43:03.276Z,18.60
2022-07-26T12:45:33.732Z,18.53
2022-07-26T12:48:06.706Z,18.53
2022-07-26T12:50:34.661Z,18.52
2022-07-26T12:53:08.847Z,18.51
2022-07-26T12:55:36.941Z,18.44
2022-07-26T12:58:05.014Z,18.45
2022-07-26T13:00:33.041Z,18.48
2022-07-26T13:03:00.986Z,18.50
2022-07-26T13:05:29.019Z,18.49
2022-07-26T13:07:57.170Z,18.50
2022-07-26T13:10:34.438Z,18.48
2022-07-26T13:13:04.057Z,18.40
2022-07-26T13:15:35.129Z,18.37
2022-07-26T13:18:07.336Z,18.34
2022-07-26T13:20:38.859Z,18.34
2022-07-26T13:23:12.597Z,18.32
2022-07-26T13:25:41.951Z,18.35
2022-07-26T13:28:11.093Z,18.32
2022-07-26T13:30:41.218Z,18.34
2022-07-26T13:33:09.825Z,18.37
2022-07-26T13:35:41.060Z,18.31
2022-07-26T13:38:10.091Z,18.27
2022-07-26T13:40:38.232Z,18.30
2022-07-26T13:43:06.250Z,18.30
2022-07-26T13:45:34.334Z,18.26
2022-07-26T13:48:02.434Z,18.27
2022-07-26T13:50:30.439Z,18.32
2022-07-26T13:52:58.503Z,18.38
2022-07-26T13:55:26.403Z,18.45
2022-07-26T13:57:56.746Z,18.44
2022-07-26T14:00:28.706Z,18.48
2022-07-26T14:02:59.315Z,18.52
2022-07-26T14:05:28.090Z,18.52
2022-07-26T14:07:56.158Z,18.55
2022-07-26T14:10:24.865Z,18.59
2022-07-26T14:12:53.555Z,18.66
2022-07-26T14:15:23.356Z,18.70
2022-07-26T14:17:52.577Z,18.73
2022-07-26T14:20:21.834Z,18.69
2022-07-26T14:22:53.908Z,18.70
2022-07-26T14:25:27.407Z,18.74
2022-07-26T14:27:55.372Z,18.71
2022-07-26T14:30:23.588Z,18.70
2022-07-26T14:32:51.612Z,18.71
2022-07-26T14:35:19.566Z,18.65
2022-07-26T14:37:47.758Z,18.66
2022-07-26T14:40:17.088Z,18.61
2022-07-26T14:42:46.123Z,18.58
2022-07-26T14:45:15.224Z,18.56
2022-07-26T14:47:44.110Z,18.57
2022-07-26T14:50:14.680Z,18.54
2022-07-26T14:52:47.420Z,18.50
2022-07-26T14:55:19.365Z,18.47
2022-07-26T14:57:51.042Z,18.47
2022-07-26T15:00:19.037Z,18.50
2022-07-26T15:02:48.832Z,18.53
2022-07-26T15:05:17.890Z,18.52
2022-07-26T15:07:46.786Z,18.49
2022-07-26T15:10:15.623Z,18.49
2022-07-26T15:12:44.155Z,18.51
2022-07-26T15:15:12.314Z,18.53
2022-07-26T15:17:40.250Z,18.56
2022-07-26T15:20:08.558Z,18.55
2022-07-26T15:22:36.474Z,18.54
2022-07-26T15:25:04.977Z,18.55
2022-07-26T15:27:33.078Z,18.55
2022-07-26T15:30:11.449Z,18.54
2022-07-26T15:32:42.296Z,18.55
2022-07-26T15:35:14.359Z,18.54
2022-07-26T15:37:48.155Z,18.45
2022-07-26T15:40:16.219Z,18.42
2022-07-26T15:42:45.726Z,18.40
2022-07-26T15:45:13.847Z,18.38
2022-07-26T15:48:08.353Z,18.36
2022-07-26T15:50:30.527Z,18.37
2022-07-26T15:52:58.533Z,18.40
2022-07-26T15:55:26.549Z,18.42
2022-07-26T15:57:54.778Z,18.46
2022-07-26T16:00:22.699Z,18.48
2022-07-26T16:02:50.938Z,18.47
2022-07-26T16:05:25.928Z,18.46
2022-07-26T16:08:00.886Z,18.51
2022-07-26T16:10:38.501Z,18.51
2022-07-26T16:13:15.992Z,18.54
2022-07-26T16:15:43.872Z,18.58
2022-07-26T16:18:18.429Z,18.56
2022-07-26T16:20:46.834Z,18.55
2022-07-26T16:23:21.384Z,18.57
2022-07-26T16:25:56.442Z,18.66
2022-07-26T16:28:31.793Z,18.71
2022-07-26T16:31:06.766Z,18.77
2022-07-26T16:33:42.599Z,18.82
2022-07-26T16:36:22.129Z,18.78
2022-07-26T16:38:57.118Z,18.74
2022-07-26T16:41:31.782Z,18.77
2022-07-26T16:44:06.867Z,18.74
2022-07-26T16:46:35.140Z,18.73
2022-07-26T16:49:11.931Z,18.73
2022-07-26T16:52:01.134Z,18.71
2022-07-26T16:54:37.650Z,18.66
2022-07-26T16:57:14.242Z,18.66
2022-07-26T16:59:47.773Z,18.64
2022-07-26T17:02:22.876Z,18.58
2022-07-26T17:04:59.712Z,18.56
2022-07-26T17:07:36.798Z,18.52
2022-07-26T17:10:13.905Z,18.48
2022-07-26T17:12:47.490Z,18.47
2022-07-26T17:15:24.086Z,18.44
2022-07-26T17:18:01.101Z,18.37
2022-07-26T17:20:36.175Z,18.28
2022-07-26T17:23:10.762Z,18.29
2022-07-26T17:25:44.836Z,18.30
2022-07-26T17:28:18.279Z,18.28
2022-07-26T17:31:11.387Z,18.23
2022-07-26T17:33:47.474Z,18.22
2022-07-26T17:36:34.243Z,18.27
2022-07-26T17:39:15.552Z,18.33
2022-07-26T17:42:23.641Z,18.40
2022-07-26T17:44:51.605Z,18.47
2022-07-26T17:47:29.074Z,18.46
2022-07-26T17:52:54.134Z,18.40
2022-07-26T17:55:22.258Z,18.37
2022-07-26T17:57:50.568Z,18.33
2022-07-26T18:00:20.771Z,18.33
2022-07-26T18:02:49.166Z,18.27
2022-07-26T18:05:18.432Z,18.25
2022-07-26T18:07:46.781Z,18.25
2022-07-26T18:10:14.877Z,18.33
2022-07-26T18:12:43.000Z,18.39
2022-07-26T18:15:11.793Z,18.40
2022-07-26T18:17:39.974Z,18.36
2022-07-26T18:20:08.492Z,18.31
2022-07-26T18:22:36.663Z,18.24
2022-07-26T18:25:05.601Z,18.18
2022-07-26T18:27:34.720Z,18.15
2022-07-26T18:30:03.278Z,18.15
2022-07-26T18:32:31.310Z,18.16
2022-07-26T18:34:59.213Z,18.11
2022-07-26T18:37:27.344Z,18.12
2022-07-26T18:39:57.878Z,18.09
2022-07-26T18:42:26.576Z,18.07
2022-07-26T18:44:54.491Z,18.03
2022-07-26T18:47:22.506Z,18.00
2022-07-26T18:49:50.798Z,17.95
2022-07-26T18:52:28.289Z,17.91
2022-07-26T18:55:12.378Z,17.86
2022-07-26T18:57:42.209Z,17.85
2022-07-26T19:00:14.419Z,17.87
2022-07-26T19:02:44.040Z,17.89
2022-07-26T19:05:13.841Z,17.86
2022-07-26T19:07:42.054Z,17.82
2022-07-26T19:10:10.894Z,17.78
2022-07-26T19:12:39.764Z,17.73
2022-07-26T19:15:08.523Z,17.69
2022-07-26T19:17:37.654Z,17.66
2022-07-26T19:20:07.317Z,17.63
2022-07-26T19:22:36.025Z,17.62
2022-07-26T19:25:09.159Z,17.60
2022-07-26T19:27:38.373Z,17.56
2022-07-26T19:30:08.801Z,17.55
2022-07-26T19:32:37.558Z,17.55
2022-07-26T19:35:06.292Z,17.49
2022-07-26T19:37:34.377Z,17.48
2022-07-26T19:40:03.906Z,17.43
2022-07-26T19:42:32.582Z,17.39
2022-07-26T19:45:00.771Z,17.36
2022-07-26T19:47:29.936Z,17.35
2022-07-26T19:49:58.844Z,17.33
2022-07-26T19:52:26.905Z,17.33
2022-07-26T19:54:54.933Z,17.31
2022-07-26T19:57:22.884Z,17.27
2022-07-26T19:59:50.999Z,17.24
2022-07-26T20:02:19.159Z,17.19
2022-07-26T20:04:47.060Z,17.13
2022-07-26T20:07:19.531Z,17.08
2022-07-26T20:09:49.638Z,17.07
2022-07-26T20:12:19.703Z,17.08
2022-07-26T20:14:47.958Z,17.06
2022-07-26T20:17:17.054Z,17.04
2022-07-26T20:19:45.062Z,16.96
2022-07-26T20:22:13.058Z,16.89
2022-07-26T20:24:41.074Z,16.81
2022-07-26T20:27:09.073Z,16.76
2022-07-26T20:29:37.379Z,16.73
2022-07-26T20:32:05.782Z,16.72
2022-07-26T20:34:33.913Z,16.70
2022-07-26T20:37:01.934Z,16.60
2022-07-26T20:39:29.994Z,16.47
2022-07-26T20:41:57.916Z,16.30
2022-07-26T20:44:28.386Z,16.17
2022-07-26T20:46:56.697Z,16.09
2022-07-26T20:49:24.810Z,15.95
2022-07-26T20:51:52.846Z,15.83
2022-07-26T20:54:20.921Z,15.71
2022-07-26T20:56:49.543Z,15.57
2022-07-26T20:59:17.554Z,15.47
2022-07-26T21:01:45.644Z,15.43
2022-07-26T21:04:13.724Z,15.40
2022-07-26T21:06:43.621Z,15.34
2022-07-26T21:09:12.323Z,15.32
2022-07-26T21:11:40.671Z,15.32
2022-07-26T21:14:08.742Z,15.46
2022-07-26T21:16:37.074Z,16.23
2022-07-26T21:19:06.036Z,17.01
2022-07-26T21:21:34.441Z,17.70
2022-07-26T21:24:02.674Z,18.22
2022-07-26T21:26:30.706Z,18.64
2022-07-26T21:28:58.725Z,18.98
2022-07-26T21:31:27.266Z,19.13
2022-07-26T21:33:55.256Z,18.86
2022-07-26T21:36:23.506Z,18.23
2022-07-26T21:38:51.508Z,17.75
2022-07-26T21:41:19.906Z,17.36
2022-07-26T21:43:47.792Z,17.00
2022-07-26T21:46:15.691Z,16.78
2022-07-26T21:48:43.824Z,16.63
2022-07-26T21:51:11.788Z,16.48
2022-07-26T21:53:39.913Z,16.46
2022-07-26T21:56:09.360Z,16.61
2022-07-26T21:58:38.428Z,17.03
2022-07-26T22:01:11.181Z,17.50
2022-07-26T22:03:40.592Z,17.84
2022-07-26T22:06:10.152Z,18.12
2022-07-26T22:08:38.324Z,18.28
2022-07-26T22:11:06.372Z,18.36
2022-07-26T22:13:34.333Z,18.40
2022-07-26T22:16:02.551Z,18.45
2022-07-26T22:18:30.682Z,18.42
2022-07-26T22:20:59.179Z,18.39
2022-07-26T22:23:30.667Z,18.41
2022-07-26T22:26:01.979Z,18.38
2022-07-26T22:28:31.507Z,18.43
2022-07-26T22:31:00.469Z,18.04
2022-07-26T22:33:28.423Z,17.44
2022-07-26T22:35:56.354Z,16.91
2022-07-26T22:38:24.296Z,16.71
2022-07-26T22:40:52.460Z,16.77
2022-07-26T22:43:20.562Z,16.74
2022-07-26T22:45:48.550Z,16.74
2022-07-26T22:48:16.681Z,16.82
2022-07-26T22:50:44.621Z,16.77
2022-07-26T22:53:12.615Z,16.57
2022-07-26T22:55:40.540Z,16.37
2022-07-26T22:58:08.411Z,16.26
2022-07-26T23:00:36.494Z,16.15
2022-07-26T23:03:05.181Z,16.02
2022-07-26T23:05:46.474Z,15.83
2022-07-26T23:11:04.622Z,15.71
2022-07-26T23:13:32.704Z,15.88
2022-07-26T23:16:01.694Z,16.20
2022-07-26T23:18:30.855Z,16.32
2022-07-26T23:20:58.908Z,16.53
2022-07-26T23:23:29.539Z,16.90
2022-07-26T23:25:59.334Z,17.17
2022-07-26T23:28:37.250Z,17.24
2022-07-26T23:31:07.894Z,17.03
2022-07-26T23:33:51.264Z,16.87
2022-07-26T23:36:27.073Z,16.78
2022-07-26T23:38:56.816Z,16.79
2022-07-26T23:41:25.187Z,16.91
2022-07-26T23:43:54.389Z,16.90
2022-07-26T23:46:23.163Z,16.70
2022-07-26T23:48:52.024Z,16.46
2022-07-26T23:51:20.769Z,16.24
2022-07-26T23:53:49.164Z,16.00
2022-07-26T23:56:18.023Z,15.82
2022-07-26T23:58:45.976Z,15.64
